sensor_id;sensor_type;location;lat;lon;timestamp;temperature;humidity
35258;DHT22;21385;50.878;8.050;2024-02-26T00:00:04;7.00;99.90
35258;DHT22;21385;50.878;8.050;2024-02-26T00:02:30;7.10;99.90
35258;DHT22;21385;50.878;8.050;2024-02-26T00:04:57;7.00;99.90
35258;DHT22;21385;50.878;8.050;2024-02-26T00:07:22;7.10;99.90
35258;DHT22;21385;50.878;8.050;2024-02-26T00:09:48;7.10;99.90
35258;DHT22;21385;50.878;8.050;2024-02-26T00:12:14;7.00;99.90
35258;DHT22;21385;50.878;8.050;2024-02-26T00:14:39;7.00;99.90
35258;DHT22;21385;50.878;8.050;2024-02-26T00:17:06;7.10;99.90
35258;DHT22;21385;50.878;8.050;2024-02-26T00:19:32;7.10;99.90
35258;DHT22;21385;50.878;8.050;2024-02-26T00:21:57;7.10;99.90
35258;DHT22;21385;50.878;8.050;2024-02-26T00:24:23;7.10;99.90
35258;DHT22;21385;50.878;8.050;2024-02-26T00:26:48;7.10;99.90
35258;DHT22;21385;50.878;8.050;2024-02-26T00:29:18;7.10;99.90
35258;DHT22;21385;50.878;8.050;2024-02-26T00:31:44;7.00;99.90
35258;DHT22;21385;50.878;8.050;2024-02-26T00:34:10;7.10;99.90
35258;DHT22;21385;50.878;8.050;2024-02-26T00:36:35;7.10;99.90
35258;DHT22;21385;50.878;8.050;2024-02-26T00:39:01;7.10;99.90
35258;DHT22;21385;50.878;8.050;2024-02-26T00:41:26;7.10;99.90
35258;DHT22;21385;50.878;8.050;2024-02-26T00:43:52;7.20;99.90
35258;DHT22;21385;50.878;8.050;2024-02-26T00:46:17;7.20;99.90
35258;DHT22;21385;50.878;8.050;2024-02-26T00:48:43;7.20;99.90
35258;DHT22;21385;50.878;8.050;2024-02-26T00:51:09;7.10;99.90
35258;DHT22;21385;50.878;8.050;2024-02-26T00:53:34;7.10;99.90
35258;DHT22;21385;50.878;8.050;2024-02-26T00:56:00;7.10;99.90
35258;DHT22;21385;50.878;8.050;2024-02-26T00:58:26;7.00;99.90
35258;DHT22;21385;50.878;8.050;2024-02-26T01:00:51;7.00;99.90
35258;DHT22;21385;50.878;8.050;2024-02-26T01:03:17;7.00;99.90
35258;DHT22;21385;50.878;8.050;2024-02-26T01:05:43;7.00;99.90
35258;DHT22;21385;50.878;8.050;2024-02-26T01:08:09;7.00;99.90
35258;DHT22;21385;50.878;8.050;2024-02-26T01:10:34;7.00;99.90
35258;DHT22;21385;50.878;8.050;2024-02-26T01:13:01;7.00;99.90
35258;DHT22;21385;50.878;8.050;2024-02-26T01:15:26;7.00;99.90
35258;DHT22;21385;50.878;8.050;2024-02-26T01:17:52;7.00;99.90
35258;DHT22;21385;50.878;8.050;2024-02-26T01:20:18;7.00;99.90
35258;DHT22;21385;50.878;8.050;2024-02-26T01:22:44;7.00;99.90
35258;DHT22;21385;50.878;8.050;2024-02-26T01:25:10;7.10;99.90
35258;DHT22;21385;50.878;8.050;2024-02-26T01:27:39;7.10;99.90
35258;DHT22;21385;50.878;8.050;2024-02-26T01:30:07;7.10;99.90
35258;DHT22;21385;50.878;8.050;2024-02-26T01:32:32;7.10;99.90
35258;DHT22;21385;50.878;8.050;2024-02-26T01:34:58;7.20;99.90
35258;DHT22;21385;50.878;8.050;2024-02-26T01:37:24;7.20;99.90
35258;DHT22;21385;50.878;8.050;2024-02-26T01:39:50;7.20;99.90
35258;DHT22;21385;50.878;8.050;2024-02-26T01:42:15;7.20;99.90
35258;DHT22;21385;50.878;8.050;2024-02-26T01:44:41;7.20;99.90
35258;DHT22;21385;50.878;8.050;2024-02-26T01:47:10;7.20;99.90
35258;DHT22;21385;50.878;8.050;2024-02-26T01:49:36;7.20;99.90
35258;DHT22;21385;50.878;8.050;2024-02-26T01:52:04;7.10;99.90
35258;DHT22;21385;50.878;8.050;2024-02-26T01:54:31;7.10;99.90
35258;DHT22;21385;50.878;8.050;2024-02-26T01:56:57;7.10;99.90
35258;DHT22;21385;50.878;8.050;2024-02-26T01:59:23;7.20;99.90
35258;DHT22;21385;50.878;8.050;2024-02-26T02:01:54;7.20;99.90
35258;DHT22;21385;50.878;8.050;2024-02-26T02:04:21;7.20;99.90
35258;DHT22;21385;50.878;8.050;2024-02-26T02:06:48;7.20;99.90
35258;DHT22;21385;50.878;8.050;2024-02-26T02:09:14;7.20;99.90
35258;DHT22;21385;50.878;8.050;2024-02-26T02:11:40;7.10;99.90
35258;DHT22;21385;50.878;8.050;2024-02-26T02:14:06;7.10;99.90
35258;DHT22;21385;50.878;8.050;2024-02-26T02:16:31;7.20;99.90
35258;DHT22;21385;50.878;8.050;2024-02-26T02:18:58;7.20;99.90
35258;DHT22;21385;50.878;8.050;2024-02-26T02:21:24;7.20;99.90
35258;DHT22;21385;50.878;8.050;2024-02-26T02:23:49;7.20;99.90
35258;DHT22;21385;50.878;8.050;2024-02-26T02:26:15;7.20;99.90
35258;DHT22;21385;50.878;8.050;2024-02-26T02:28:41;7.20;99.90
35258;DHT22;21385;50.878;8.050;2024-02-26T02:31:07;7.10;99.90
35258;DHT22;21385;50.878;8.050;2024-02-26T02:33:34;7.20;99.90
35258;DHT22;21385;50.878;8.050;2024-02-26T02:36:00;7.10;99.90
35258;DHT22;21385;50.878;8.050;2024-02-26T02:38:26;7.20;99.90
35258;DHT22;21385;50.878;8.050;2024-02-26T02:40:54;7.20;99.90
35258;DHT22;21385;50.878;8.050;2024-02-26T02:43:20;7.20;99.90
35258;DHT22;21385;50.878;8.050;2024-02-26T02:45:46;7.20;99.90
35258;DHT22;21385;50.878;8.050;2024-02-26T02:48:11;7.20;99.90
35258;DHT22;21385;50.878;8.050;2024-02-26T02:50:37;7.30;99.90
35258;DHT22;21385;50.878;8.050;2024-02-26T02:53:03;7.30;99.90
35258;DHT22;21385;50.878;8.050;2024-02-26T02:55:29;7.30;99.90
35258;DHT22;21385;50.878;8.050;2024-02-26T02:57:54;7.20;99.90
35258;DHT22;21385;50.878;8.050;2024-02-26T03:00:20;7.20;99.90
35258;DHT22;21385;50.878;8.050;2024-02-26T03:02:48;7.20;99.90
35258;DHT22;21385;50.878;8.050;2024-02-26T03:05:14;7.20;99.90
35258;DHT22;21385;50.878;8.050;2024-02-26T03:07:39;7.20;99.90
35258;DHT22;21385;50.878;8.050;2024-02-26T03:10:05;7.30;99.90
35258;DHT22;21385;50.878;8.050;2024-02-26T03:12:31;7.30;99.90
35258;DHT22;21385;50.878;8.050;2024-02-26T03:14:57;7.30;99.90
35258;DHT22;21385;50.878;8.050;2024-02-26T03:17:23;7.30;99.90
35258;DHT22;21385;50.878;8.050;2024-02-26T03:19:50;7.30;99.90
35258;DHT22;21385;50.878;8.050;2024-02-26T03:22:19;7.30;99.90
35258;DHT22;21385;50.878;8.050;2024-02-26T03:24:45;7.20;99.90
35258;DHT22;21385;50.878;8.050;2024-02-26T03:27:10;7.30;99.90
35258;DHT22;21385;50.878;8.050;2024-02-26T03:29:37;7.40;99.90
35258;DHT22;21385;50.878;8.050;2024-02-26T03:32:03;7.30;99.90
35258;DHT22;21385;50.878;8.050;2024-02-26T03:34:29;7.30;99.90
35258;DHT22;21385;50.878;8.050;2024-02-26T03:36:56;7.30;99.90
35258;DHT22;21385;50.878;8.050;2024-02-26T03:39:21;7.30;99.90
35258;DHT22;21385;50.878;8.050;2024-02-26T03:41:48;7.30;99.90
35258;DHT22;21385;50.878;8.050;2024-02-26T03:44:13;7.30;99.90
35258;DHT22;21385;50.878;8.050;2024-02-26T03:46:39;7.30;99.90
35258;DHT22;21385;50.878;8.050;2024-02-26T03:49:05;7.30;99.90
35258;DHT22;21385;50.878;8.050;2024-02-26T03:51:30;7.30;99.90
35258;DHT22;21385;50.878;8.050;2024-02-26T03:53:57;7.30;99.90
35258;DHT22;21385;50.878;8.050;2024-02-26T03:56:24;7.40;99.90
35258;DHT22;21385;50.878;8.050;2024-02-26T03:58:50;7.30;99.90
35258;DHT22;21385;50.878;8.050;2024-02-26T04:01:16;7.40;99.90
35258;DHT22;21385;50.878;8.050;2024-02-26T04:03:41;7.40;99.90
35258;DHT22;21385;50.878;8.050;2024-02-26T04:06:10;7.50;99.90
35258;DHT22;21385;50.878;8.050;2024-02-26T04:08:37;7.50;99.90
35258;DHT22;21385;50.878;8.050;2024-02-26T04:11:03;7.50;99.90
35258;DHT22;21385;50.878;8.050;2024-02-26T04:13:35;7.50;99.90
35258;DHT22;21385;50.878;8.050;2024-02-26T04:16:06;7.50;99.90
35258;DHT22;21385;50.878;8.050;2024-02-26T04:18:32;7.50;99.90
35258;DHT22;21385;50.878;8.050;2024-02-26T04:20:58;7.40;99.90
35258;DHT22;21385;50.878;8.050;2024-02-26T04:23:24;7.40;99.90
35258;DHT22;21385;50.878;8.050;2024-02-26T04:25:50;7.40;99.90
35258;DHT22;21385;50.878;8.050;2024-02-26T04:28:15;7.40;99.90
35258;DHT22;21385;50.878;8.050;2024-02-26T04:30:41;7.40;99.90
35258;DHT22;21385;50.878;8.050;2024-02-26T04:33:07;7.40;99.90
35258;DHT22;21385;50.878;8.050;2024-02-26T04:35:33;7.40;99.90
35258;DHT22;21385;50.878;8.050;2024-02-26T04:38:00;7.40;99.90
35258;DHT22;21385;50.878;8.050;2024-02-26T04:40:26;7.50;99.90
35258;DHT22;21385;50.878;8.050;2024-02-26T04:42:51;7.40;99.90
35258;DHT22;21385;50.878;8.050;2024-02-26T04:45:17;7.50;99.90
35258;DHT22;21385;50.878;8.050;2024-02-26T04:47:43;7.50;99.90
35258;DHT22;21385;50.878;8.050;2024-02-26T04:50:08;7.50;99.90
35258;DHT22;21385;50.878;8.050;2024-02-26T04:52:34;7.60;99.90
35258;DHT22;21385;50.878;8.050;2024-02-26T04:54:59;7.60;99.90
35258;DHT22;21385;50.878;8.050;2024-02-26T04:57:25;7.60;99.90
35258;DHT22;21385;50.878;8.050;2024-02-26T04:59:51;7.70;99.90
35258;DHT22;21385;50.878;8.050;2024-02-26T05:02:17;7.70;99.90
35258;DHT22;21385;50.878;8.050;2024-02-26T05:04:43;7.80;99.90
35258;DHT22;21385;50.878;8.050;2024-02-26T05:07:08;7.80;99.90
35258;DHT22;21385;50.878;8.050;2024-02-26T05:09:34;7.80;99.90
35258;DHT22;21385;50.878;8.050;2024-02-26T05:12:00;7.80;99.90
35258;DHT22;21385;50.878;8.050;2024-02-26T05:14:26;7.80;99.90
35258;DHT22;21385;50.878;8.050;2024-02-26T05:16:51;7.80;99.90
35258;DHT22;21385;50.878;8.050;2024-02-26T05:19:17;7.80;99.90
35258;DHT22;21385;50.878;8.050;2024-02-26T05:21:42;7.70;99.90
35258;DHT22;21385;50.878;8.050;2024-02-26T05:24:09;7.70;99.90
35258;DHT22;21385;50.878;8.050;2024-02-26T05:26:35;7.70;99.90
35258;DHT22;21385;50.878;8.050;2024-02-26T05:29:01;7.60;99.90
35258;DHT22;21385;50.878;8.050;2024-02-26T05:31:26;7.60;99.90
35258;DHT22;21385;50.878;8.050;2024-02-26T05:33:52;7.60;99.90
35258;DHT22;21385;50.878;8.050;2024-02-26T05:36:22;7.50;99.90
35258;DHT22;21385;50.878;8.050;2024-02-26T05:38:51;7.50;99.90
35258;DHT22;21385;50.878;8.050;2024-02-26T05:41:17;7.50;99.90
35258;DHT22;21385;50.878;8.050;2024-02-26T05:43:49;7.50;99.90
35258;DHT22;21385;50.878;8.050;2024-02-26T05:46:17;7.50;99.90
35258;DHT22;21385;50.878;8.050;2024-02-26T05:48:44;7.50;99.90
35258;DHT22;21385;50.878;8.050;2024-02-26T05:51:09;7.50;99.90
35258;DHT22;21385;50.878;8.050;2024-02-26T05:53:35;7.50;99.90
35258;DHT22;21385;50.878;8.050;2024-02-26T05:56:01;7.50;99.90
35258;DHT22;21385;50.878;8.050;2024-02-26T05:58:26;7.50;99.90
35258;DHT22;21385;50.878;8.050;2024-02-26T06:00:52;7.50;99.90
35258;DHT22;21385;50.878;8.050;2024-02-26T06:03:17;7.50;99.90
35258;DHT22;21385;50.878;8.050;2024-02-26T06:05:43;7.50;99.90
35258;DHT22;21385;50.878;8.050;2024-02-26T06:08:09;7.40;99.90
35258;DHT22;21385;50.878;8.050;2024-02-26T06:10:34;7.40;99.90
35258;DHT22;21385;50.878;8.050;2024-02-26T06:13:00;7.40;99.90
35258;DHT22;21385;50.878;8.050;2024-02-26T06:15:26;7.40;99.90
35258;DHT22;21385;50.878;8.050;2024-02-26T06:17:51;7.40;99.90
35258;DHT22;21385;50.878;8.050;2024-02-26T06:20:17;7.40;99.90
35258;DHT22;21385;50.878;8.050;2024-02-26T06:22:42;7.30;99.90
35258;DHT22;21385;50.878;8.050;2024-02-26T06:25:08;7.30;99.90
35258;DHT22;21385;50.878;8.050;2024-02-26T06:27:34;7.30;99.90
35258;DHT22;21385;50.878;8.050;2024-02-26T06:30:00;7.20;99.90
35258;DHT22;21385;50.878;8.050;2024-02-26T06:32:25;7.20;99.90
35258;DHT22;21385;50.878;8.050;2024-02-26T06:34:53;7.30;99.90
35258;DHT22;21385;50.878;8.050;2024-02-26T06:37:18;7.20;99.90
35258;DHT22;21385;50.878;8.050;2024-02-26T06:39:44;7.20;99.90
35258;DHT22;21385;50.878;8.050;2024-02-26T06:42:09;7.20;99.90
35258;DHT22;21385;50.878;8.050;2024-02-26T06:44:35;7.20;99.90
35258;DHT22;21385;50.878;8.050;2024-02-26T06:47:01;7.20;99.90
35258;DHT22;21385;50.878;8.050;2024-02-26T06:49:27;7.20;99.90
35258;DHT22;21385;50.878;8.050;2024-02-26T06:51:53;7.20;99.90
35258;DHT22;21385;50.878;8.050;2024-02-26T06:54:19;7.20;99.90
35258;DHT22;21385;50.878;8.050;2024-02-26T06:56:44;7.20;99.90
35258;DHT22;21385;50.878;8.050;2024-02-26T06:59:10;7.20;99.90
35258;DHT22;21385;50.878;8.050;2024-02-26T07:01:36;7.20;99.90
35258;DHT22;21385;50.878;8.050;2024-02-26T07:04:01;7.20;99.90
35258;DHT22;21385;50.878;8.050;2024-02-26T07:06:27;7.20;99.90
35258;DHT22;21385;50.878;8.050;2024-02-26T07:08:53;7.10;99.90
35258;DHT22;21385;50.878;8.050;2024-02-26T07:11:19;7.20;99.90
35258;DHT22;21385;50.878;8.050;2024-02-26T07:13:45;7.20;99.90
35258;DHT22;21385;50.878;8.050;2024-02-26T07:16:11;7.20;99.90
35258;DHT22;21385;50.878;8.050;2024-02-26T07:18:38;7.20;99.90
35258;DHT22;21385;50.878;8.050;2024-02-26T07:21:04;7.10;99.90
35258;DHT22;21385;50.878;8.050;2024-02-26T07:23:30;7.10;99.90
35258;DHT22;21385;50.878;8.050;2024-02-26T07:25:55;7.10;99.90
35258;DHT22;21385;50.878;8.050;2024-02-26T07:28:21;7.10;99.90
35258;DHT22;21385;50.878;8.050;2024-02-26T07:30:46;7.00;99.90
35258;DHT22;21385;50.878;8.050;2024-02-26T07:33:12;7.00;99.90
35258;DHT22;21385;50.878;8.050;2024-02-26T07:35:38;7.00;99.90
35258;DHT22;21385;50.878;8.050;2024-02-26T07:38:04;7.00;99.90
35258;DHT22;21385;50.878;8.050;2024-02-26T07:40:30;6.90;99.90
35258;DHT22;21385;50.878;8.050;2024-02-26T07:42:56;7.00;99.90
35258;DHT22;21385;50.878;8.050;2024-02-26T07:45:22;7.00;99.90
35258;DHT22;21385;50.878;8.050;2024-02-26T07:47:48;7.00;99.90
35258;DHT22;21385;50.878;8.050;2024-02-26T07:50:13;6.90;99.90
35258;DHT22;21385;50.878;8.050;2024-02-26T07:52:39;6.90;99.90
35258;DHT22;21385;50.878;8.050;2024-02-26T07:55:06;7.00;99.90
35258;DHT22;21385;50.878;8.050;2024-02-26T07:57:32;7.00;99.90
35258;DHT22;21385;50.878;8.050;2024-02-26T07:59:59;7.10;99.90
35258;DHT22;21385;50.878;8.050;2024-02-26T08:02:25;7.00;99.90
35258;DHT22;21385;50.878;8.050;2024-02-26T08:04:50;6.90;99.90
35258;DHT22;21385;50.878;8.050;2024-02-26T08:07:16;6.90;99.90
35258;DHT22;21385;50.878;8.050;2024-02-26T08:09:41;7.00;99.90
35258;DHT22;21385;50.878;8.050;2024-02-26T08:12:07;7.00;99.90
35258;DHT22;21385;50.878;8.050;2024-02-26T08:14:33;7.10;99.90
35258;DHT22;21385;50.878;8.050;2024-02-26T08:16:59;7.10;99.90
35258;DHT22;21385;50.878;8.050;2024-02-26T08:19:24;7.10;99.90
35258;DHT22;21385;50.878;8.050;2024-02-26T08:21:50;7.10;99.90
35258;DHT22;21385;50.878;8.050;2024-02-26T08:24:16;7.10;99.90
35258;DHT22;21385;50.878;8.050;2024-02-26T08:26:42;7.10;99.90
35258;DHT22;21385;50.878;8.050;2024-02-26T08:29:07;7.10;99.90
35258;DHT22;21385;50.878;8.050;2024-02-26T08:31:33;7.10;99.90
35258;DHT22;21385;50.878;8.050;2024-02-26T08:34:01;7.10;99.90
35258;DHT22;21385;50.878;8.050;2024-02-26T08:36:28;7.00;99.90
35258;DHT22;21385;50.878;8.050;2024-02-26T08:38:53;7.00;99.90
35258;DHT22;21385;50.878;8.050;2024-02-26T08:41:19;6.90;99.90
35258;DHT22;21385;50.878;8.050;2024-02-26T08:43:44;6.90;99.90
35258;DHT22;21385;50.878;8.050;2024-02-26T08:46:12;6.90;99.90
35258;DHT22;21385;50.878;8.050;2024-02-26T08:48:39;6.90;99.90
35258;DHT22;21385;50.878;8.050;2024-02-26T08:51:06;6.90;99.90
35258;DHT22;21385;50.878;8.050;2024-02-26T08:53:32;6.90;99.90
35258;DHT22;21385;50.878;8.050;2024-02-26T08:55:58;6.90;99.90
35258;DHT22;21385;50.878;8.050;2024-02-26T08:58:23;6.80;99.90
35258;DHT22;21385;50.878;8.050;2024-02-26T09:00:49;6.80;99.90
35258;DHT22;21385;50.878;8.050;2024-02-26T09:03:14;6.90;99.90
35258;DHT22;21385;50.878;8.050;2024-02-26T09:05:40;6.90;99.90
35258;DHT22;21385;50.878;8.050;2024-02-26T09:08:06;6.90;99.90
35258;DHT22;21385;50.878;8.050;2024-02-26T09:10:31;6.90;99.90
35258;DHT22;21385;50.878;8.050;2024-02-26T09:12:58;6.90;99.90
35258;DHT22;21385;50.878;8.050;2024-02-26T09:15:23;7.00;99.90
35258;DHT22;21385;50.878;8.050;2024-02-26T09:17:49;7.00;99.90
35258;DHT22;21385;50.878;8.050;2024-02-26T09:20:16;7.10;99.90
35258;DHT22;21385;50.878;8.050;2024-02-26T09:22:45;7.10;99.90
35258;DHT22;21385;50.878;8.050;2024-02-26T09:25:11;7.20;99.90
35258;DHT22;21385;50.878;8.050;2024-02-26T09:27:37;7.20;99.90
35258;DHT22;21385;50.878;8.050;2024-02-26T09:30:03;7.20;99.90
35258;DHT22;21385;50.878;8.050;2024-02-26T09:32:29;7.30;99.90
35258;DHT22;21385;50.878;8.050;2024-02-26T09:34:55;7.20;99.90
35258;DHT22;21385;50.878;8.050;2024-02-26T09:37:21;7.20;99.90
35258;DHT22;21385;50.878;8.050;2024-02-26T09:39:46;7.20;99.90
35258;DHT22;21385;50.878;8.050;2024-02-26T09:42:13;7.20;99.90
35258;DHT22;21385;50.878;8.050;2024-02-26T09:44:40;7.30;99.90
35258;DHT22;21385;50.878;8.050;2024-02-26T09:47:10;7.30;99.90
35258;DHT22;21385;50.878;8.050;2024-02-26T09:49:37;7.30;99.90
35258;DHT22;21385;50.878;8.050;2024-02-26T09:52:04;7.40;99.90
35258;DHT22;21385;50.878;8.050;2024-02-26T09:54:31;7.50;99.90
35258;DHT22;21385;50.878;8.050;2024-02-26T09:57:00;7.50;99.90
35258;DHT22;21385;50.878;8.050;2024-02-26T09:59:28;7.50;99.90
35258;DHT22;21385;50.878;8.050;2024-02-26T10:01:55;7.60;99.90
35258;DHT22;21385;50.878;8.050;2024-02-26T10:04:22;7.60;99.90
35258;DHT22;21385;50.878;8.050;2024-02-26T10:06:49;7.60;99.90
35258;DHT22;21385;50.878;8.050;2024-02-26T10:09:15;7.60;99.90
35258;DHT22;21385;50.878;8.050;2024-02-26T10:11:41;7.60;99.90
35258;DHT22;21385;50.878;8.050;2024-02-26T10:14:08;7.70;99.90
35258;DHT22;21385;50.878;8.050;2024-02-26T10:16:34;7.60;99.90
35258;DHT22;21385;50.878;8.050;2024-02-26T10:19:01;7.70;99.90
35258;DHT22;21385;50.878;8.050;2024-02-26T10:21:26;7.70;99.90
35258;DHT22;21385;50.878;8.050;2024-02-26T10:23:52;7.70;99.90
35258;DHT22;21385;50.878;8.050;2024-02-26T10:26:18;7.80;99.90
35258;DHT22;21385;50.878;8.050;2024-02-26T10:28:45;7.90;99.90
35258;DHT22;21385;50.878;8.050;2024-02-26T10:31:11;8.00;99.90
35258;DHT22;21385;50.878;8.050;2024-02-26T10:33:39;8.10;99.90
35258;DHT22;21385;50.878;8.050;2024-02-26T10:36:06;8.10;99.90
35258;DHT22;21385;50.878;8.050;2024-02-26T10:38:36;8.10;99.90
35258;DHT22;21385;50.878;8.050;2024-02-26T10:41:03;8.10;99.90
35258;DHT22;21385;50.878;8.050;2024-02-26T10:43:29;8.10;99.90
35258;DHT22;21385;50.878;8.050;2024-02-26T10:45:55;8.10;99.90
35258;DHT22;21385;50.878;8.050;2024-02-26T10:48:21;8.10;99.90
35258;DHT22;21385;50.878;8.050;2024-02-26T10:50:47;8.20;99.90
35258;DHT22;21385;50.878;8.050;2024-02-26T10:53:21;8.30;99.90
35258;DHT22;21385;50.878;8.050;2024-02-26T10:55:57;8.20;99.90
35258;DHT22;21385;50.878;8.050;2024-02-26T10:58:23;8.20;99.90
35258;DHT22;21385;50.878;8.050;2024-02-26T11:00:51;8.20;99.90
35258;DHT22;21385;50.878;8.050;2024-02-26T11:03:17;8.20;99.90
35258;DHT22;21385;50.878;8.050;2024-02-26T11:05:48;8.20;99.90
35258;DHT22;21385;50.878;8.050;2024-02-26T11:08:18;8.20;99.90
35258;DHT22;21385;50.878;8.050;2024-02-26T11:10:46;8.70;99.90
35258;DHT22;21385;50.878;8.050;2024-02-26T11:13:14;8.80;99.90
35258;DHT22;21385;50.878;8.050;2024-02-26T11:15:40;8.80;99.90
35258;DHT22;21385;50.878;8.050;2024-02-26T11:18:07;8.80;99.90
35258;DHT22;21385;50.878;8.050;2024-02-26T11:20:34;8.80;99.90
35258;DHT22;21385;50.878;8.050;2024-02-26T11:23:03;8.70;99.90
35258;DHT22;21385;50.878;8.050;2024-02-26T11:25:29;8.70;99.90
35258;DHT22;21385;50.878;8.050;2024-02-26T11:27:58;8.70;99.90
35258;DHT22;21385;50.878;8.050;2024-02-26T11:30:30;8.70;99.90
35258;DHT22;21385;50.878;8.050;2024-02-26T11:32:56;8.80;99.90
35258;DHT22;21385;50.878;8.050;2024-02-26T11:35:23;8.80;99.90
35258;DHT22;21385;50.878;8.050;2024-02-26T11:37:56;8.80;99.90
35258;DHT22;21385;50.878;8.050;2024-02-26T11:40:25;8.80;99.90
35258;DHT22;21385;50.878;8.050;2024-02-26T11:42:51;8.80;99.90
35258;DHT22;21385;50.878;8.050;2024-02-26T11:48:03;8.90;99.90
35258;DHT22;21385;50.878;8.050;2024-02-26T11:50:36;8.90;99.90
35258;DHT22;21385;50.878;8.050;2024-02-26T11:55:46;8.70;99.90
35258;DHT22;21385;50.878;8.050;2024-02-26T11:58:11;8.70;99.90
35258;DHT22;21385;50.878;8.050;2024-02-26T12:00:40;8.70;99.90
35258;DHT22;21385;50.878;8.050;2024-02-26T12:03:05;8.70;99.90
35258;DHT22;21385;50.878;8.050;2024-02-26T12:05:34;8.70;99.90
35258;DHT22;21385;50.878;8.050;2024-02-26T12:08:08;8.60;99.90
35258;DHT22;21385;50.878;8.050;2024-02-26T12:10:36;8.70;99.90
35258;DHT22;21385;50.878;8.050;2024-02-26T12:13:14;8.70;99.90
35258;DHT22;21385;50.878;8.050;2024-02-26T12:15:41;8.70;99.90
35258;DHT22;21385;50.878;8.050;2024-02-26T12:18:08;8.80;99.90
35258;DHT22;21385;50.878;8.050;2024-02-26T12:20:36;8.90;99.90
35258;DHT22;21385;50.878;8.050;2024-02-26T12:23:05;9.00;99.90
35258;DHT22;21385;50.878;8.050;2024-02-26T12:25:31;9.10;99.90
35258;DHT22;21385;50.878;8.050;2024-02-26T12:27:58;9.20;99.90
35258;DHT22;21385;50.878;8.050;2024-02-26T12:30:24;9.20;99.90
35258;DHT22;21385;50.878;8.050;2024-02-26T12:32:52;9.20;99.90
35258;DHT22;21385;50.878;8.050;2024-02-26T12:35:18;9.20;99.90
35258;DHT22;21385;50.878;8.050;2024-02-26T12:37:44;9.20;99.90
35258;DHT22;21385;50.878;8.050;2024-02-26T12:40:10;9.30;99.90
35258;DHT22;21385;50.878;8.050;2024-02-26T12:42:37;9.20;99.90
35258;DHT22;21385;50.878;8.050;2024-02-26T12:45:08;9.20;99.90
35258;DHT22;21385;50.878;8.050;2024-02-26T12:47:40;9.20;99.90
35258;DHT22;21385;50.878;8.050;2024-02-26T12:50:07;9.20;99.90
35258;DHT22;21385;50.878;8.050;2024-02-26T12:52:40;9.30;99.90
35258;DHT22;21385;50.878;8.050;2024-02-26T12:55:07;9.30;99.90
35258;DHT22;21385;50.878;8.050;2024-02-26T12:57:37;9.30;99.90
35258;DHT22;21385;50.878;8.050;2024-02-26T13:00:06;9.30;99.90
35258;DHT22;21385;50.878;8.050;2024-02-26T13:02:35;9.40;99.90
35258;DHT22;21385;50.878;8.050;2024-02-26T13:05:05;9.40;99.90
35258;DHT22;21385;50.878;8.050;2024-02-26T13:07:32;9.50;99.90
35258;DHT22;21385;50.878;8.050;2024-02-26T13:09:58;9.50;99.90
35258;DHT22;21385;50.878;8.050;2024-02-26T13:12:24;9.60;99.90
35258;DHT22;21385;50.878;8.050;2024-02-26T13:15:03;9.70;99.90
35258;DHT22;21385;50.878;8.050;2024-02-26T13:17:32;9.70;99.90
35258;DHT22;21385;50.878;8.050;2024-02-26T13:19:57;9.70;99.90
35258;DHT22;21385;50.878;8.050;2024-02-26T13:22:23;9.70;99.90
35258;DHT22;21385;50.878;8.050;2024-02-26T13:24:56;9.60;99.90
35258;DHT22;21385;50.878;8.050;2024-02-26T13:27:25;9.60;99.90
35258;DHT22;21385;50.878;8.050;2024-02-26T13:30:10;9.70;99.90
35258;DHT22;21385;50.878;8.050;2024-02-26T13:32:37;9.70;99.90
35258;DHT22;21385;50.878;8.050;2024-02-26T13:35:10;9.80;99.90
35258;DHT22;21385;50.878;8.050;2024-02-26T13:37:36;9.90;99.90
35258;DHT22;21385;50.878;8.050;2024-02-26T13:42:32;9.90;99.90
35258;DHT22;21385;50.878;8.050;2024-02-26T13:44:58;9.90;99.90
35258;DHT22;21385;50.878;8.050;2024-02-26T13:47:24;9.90;99.90
35258;DHT22;21385;50.878;8.050;2024-02-26T13:49:50;9.90;99.90
35258;DHT22;21385;50.878;8.050;2024-02-26T13:52:15;9.80;99.90
35258;DHT22;21385;50.878;8.050;2024-02-26T13:54:41;9.80;99.90
35258;DHT22;21385;50.878;8.050;2024-02-26T13:57:07;9.80;99.90
35258;DHT22;21385;50.878;8.050;2024-02-26T13:59:34;9.80;99.90
35258;DHT22;21385;50.878;8.050;2024-02-26T14:01:59;9.80;99.90
35258;DHT22;21385;50.878;8.050;2024-02-26T14:04:25;9.80;99.90
35258;DHT22;21385;50.878;8.050;2024-02-26T14:06:50;9.80;99.90
35258;DHT22;21385;50.878;8.050;2024-02-26T14:09:16;9.90;99.90
35258;DHT22;21385;50.878;8.050;2024-02-26T14:11:45;9.90;99.90
35258;DHT22;21385;50.878;8.050;2024-02-26T14:14:10;9.90;99.90
35258;DHT22;21385;50.878;8.050;2024-02-26T14:16:36;10.00;99.90
35258;DHT22;21385;50.878;8.050;2024-02-26T14:19:02;10.00;99.90
35258;DHT22;21385;50.878;8.050;2024-02-26T14:21:28;9.90;99.90
35258;DHT22;21385;50.878;8.050;2024-02-26T14:23:55;10.00;99.90
35258;DHT22;21385;50.878;8.050;2024-02-26T14:26:24;10.00;99.90
35258;DHT22;21385;50.878;8.050;2024-02-26T14:28:49;9.90;99.90
35258;DHT22;21385;50.878;8.050;2024-02-26T14:31:17;10.00;99.90
35258;DHT22;21385;50.878;8.050;2024-02-26T14:33:43;10.00;99.90
35258;DHT22;21385;50.878;8.050;2024-02-26T14:36:09;10.00;99.90
35258;DHT22;21385;50.878;8.050;2024-02-26T14:38:35;10.00;99.90
35258;DHT22;21385;50.878;8.050;2024-02-26T14:41:01;10.00;99.90
35258;DHT22;21385;50.878;8.050;2024-02-26T14:43:27;10.00;99.90
35258;DHT22;21385;50.878;8.050;2024-02-26T14:45:53;10.00;99.90
35258;DHT22;21385;50.878;8.050;2024-02-26T14:48:18;10.00;99.90
35258;DHT22;21385;50.878;8.050;2024-02-26T14:50:44;10.00;99.90
35258;DHT22;21385;50.878;8.050;2024-02-26T14:53:09;10.10;99.90
35258;DHT22;21385;50.878;8.050;2024-02-26T14:55:35;10.10;99.90
35258;DHT22;21385;50.878;8.050;2024-02-26T14:58:00;10.00;99.90
35258;DHT22;21385;50.878;8.050;2024-02-26T15:00:26;10.10;99.90
35258;DHT22;21385;50.878;8.050;2024-02-26T15:02:52;10.10;99.90
35258;DHT22;21385;50.878;8.050;2024-02-26T15:05:19;10.10;99.90
35258;DHT22;21385;50.878;8.050;2024-02-26T15:07:45;10.10;99.90
35258;DHT22;21385;50.878;8.050;2024-02-26T15:10:11;10.10;99.90
35258;DHT22;21385;50.878;8.050;2024-02-26T15:12:37;10.10;99.90
35258;DHT22;21385;50.878;8.050;2024-02-26T15:15:03;10.20;99.90
35258;DHT22;21385;50.878;8.050;2024-02-26T15:17:29;10.20;99.90
35258;DHT22;21385;50.878;8.050;2024-02-26T15:19:57;10.20;99.90
35258;DHT22;21385;50.878;8.050;2024-02-26T15:22:24;10.20;99.90
35258;DHT22;21385;50.878;8.050;2024-02-26T15:24:50;10.20;99.90
35258;DHT22;21385;50.878;8.050;2024-02-26T15:27:15;10.20;99.90
35258;DHT22;21385;50.878;8.050;2024-02-26T15:29:42;10.20;99.90
35258;DHT22;21385;50.878;8.050;2024-02-26T15:32:07;10.20;99.90
35258;DHT22;21385;50.878;8.050;2024-02-26T15:34:33;10.30;99.90
35258;DHT22;21385;50.878;8.050;2024-02-26T15:36:59;10.30;99.90
35258;DHT22;21385;50.878;8.050;2024-02-26T15:39:24;10.30;99.90
35258;DHT22;21385;50.878;8.050;2024-02-26T15:41:50;10.30;99.90
35258;DHT22;21385;50.878;8.050;2024-02-26T15:44:15;10.30;99.90
35258;DHT22;21385;50.878;8.050;2024-02-26T15:46:41;10.20;99.90